createdAt,value
2022-10-11T00:01:05.676Z,98722.31
2022-10-11T00:03:34.109Z,98715.63
2022-10-11T00:06:05.708Z,98719.13
2022-10-11T00:08:34.599Z,98726.03
2022-10-11T00:11:07.268Z,98719.53
2022-10-11T00:13:36.154Z,98723.16
2022-10-11T00:16:09.955Z,98716.28
2022-10-11T00:18:38.930Z,98717.88
2022-10-11T00:21:11.928Z,98719.53
2022-10-11T00:23:40.703Z,98724.75
2022-10-11T00:26:12.173Z,98725.75
2022-10-11T00:28:41.262Z,98733.84
2022-10-11T00:31:11.606Z,98727.53
2022-10-11T00:33:39.916Z,98726.16
2022-10-11T00:36:10.441Z,98723.56
2022-10-11T00:38:38.754Z,98729.88
2022-10-11T00:41:07.414Z,98729.97
2022-10-11T00:43:37.780Z,98739.63
2022-10-11T00:46:27.654Z,98737.03
2022-10-11T00:49:02.689Z,98746.50
2022-10-11T00:51:40.690Z,98730.50
2022-10-11T00:54:13.403Z,98730.06
2022-10-11T00:56:43.190Z,98741.41
2022-10-11T00:59:19.149Z,98733.88
2022-10-11T01:01:47.632Z,98738.84
2022-10-11T01:04:15.938Z,98736.25
2022-10-11T01:06:45.047Z,98731.84
2022-10-11T01:09:14.796Z,98742.88
2022-10-11T01:11:44.780Z,98747.03
2022-10-11T01:14:37.076Z,98745.47
2022-10-11T01:17:22.130Z,98741.41
2022-10-11T01:20:27.751Z,98747.56
2022-10-11T01:23:52.690Z,98734.03
2022-10-11T01:27:00.758Z,98745.91
2022-10-11T01:29:47.278Z,98752.78
2022-10-11T01:32:20.105Z,98748.41
2022-10-11T01:34:56.719Z,98751.19
2022-10-11T01:37:33.013Z,98753.06
2022-10-11T01:40:06.478Z,98747.75
2022-10-11T01:42:37.325Z,98756.84
2022-10-11T01:45:07.444Z,98740.53
2022-10-11T01:47:39.074Z,98752.59
2022-10-11T01:50:24.071Z,98746.84
2022-10-11T01:52:52.908Z,98757.88
2022-10-11T01:55:32.121Z,98750.94
2022-10-11T01:58:12.543Z,98751.47
2022-10-11T02:00:51.046Z,98755.38
2022-10-11T02:03:30.282Z,98752.03
2022-10-11T02:06:05.711Z,98753.81
2022-10-11T02:08:55.701Z,98756.47
2022-10-11T02:11:38.326Z,98752.16
2022-10-11T02:14:24.456Z,98749.72
2022-10-11T02:17:19.037Z,98750.38
2022-10-11T02:20:05.174Z,98746.19
2022-10-11T02:22:53.720Z,98748.13
2022-10-11T02:25:37.484Z,98750.91
2022-10-11T02:28:24.055Z,98759.00
2022-10-11T02:31:08.127Z,98756.28
2022-10-11T02:33:57.485Z,98760.00
2022-10-11T02:36:52.862Z,98761.94
2022-10-11T02:39:49.926Z,98762.78
2022-10-11T02:42:37.617Z,98766.41
2022-10-11T02:45:26.206Z,98765.56
2022-10-11T02:48:10.783Z,98769.09
2022-10-11T02:51:16.068Z,98767.34
2022-10-11T02:53:57.338Z,98773.53
2022-10-11T02:56:38.188Z,98765.00
2022-10-11T02:59:19.916Z,98770.38
2022-10-11T03:02:01.014Z,98768.34
2022-10-11T03:04:42.449Z,98770.00
2022-10-11T03:07:24.082Z,98767.63
2022-10-11T03:10:06.558Z,98771.78
2022-10-11T03:12:48.581Z,98771.69
2022-10-11T03:15:30.407Z,98782.97
2022-10-11T03:18:11.374Z,98778.81
2022-10-11T03:20:52.455Z,98782.16
2022-10-11T03:23:33.809Z,98785.78
2022-10-11T03:26:15.740Z,98777.13
2022-10-11T03:28:56.712Z,98785.03
2022-10-11T03:31:38.105Z,98786.03
2022-10-11T03:34:22.593Z,98789.47
2022-10-11T03:37:04.267Z,98787.78
2022-10-11T03:39:45.990Z,98790.38
2022-10-11T03:42:27.074Z,98786.88
2022-10-11T03:45:11.468Z,98785.19
2022-10-11T03:47:52.975Z,98792.06
2022-10-11T03:50:34.241Z,98788.72
2022-10-11T03:53:22.933Z,98793.91
2022-10-11T03:56:08.288Z,98793.00
2022-10-11T03:58:49.859Z,98794.03
2022-10-11T04:01:35.816Z,98800.88
2022-10-11T04:04:17.234Z,98801.59
2022-10-11T04:06:58.785Z,98795.69
2022-10-11T04:09:39.994Z,98792.25
2022-10-11T04:12:21.330Z,98802.66
2022-10-11T04:15:03.019Z,98801.88
2022-10-11T04:17:44.477Z,98809.50
2022-10-11T04:20:25.790Z,98810.59
2022-10-11T04:23:07.286Z,98807.84
2022-10-11T04:25:52.863Z,98813.19
2022-10-11T04:28:33.955Z,98812.25
2022-10-11T04:31:14.802Z,98807.19
2022-10-11T04:33:57.067Z,98809.84
2022-10-11T04:36:39.014Z,98817.56
2022-10-11T04:39:20.756Z,98812.53
2022-10-11T04:42:01.693Z,98814.88
2022-10-11T04:44:43.283Z,98822.91
2022-10-11T04:47:24.668Z,98815.97
2022-10-11T04:50:06.979Z,98825.41
2022-10-11T04:52:47.311Z,98822.91
2022-10-11T04:55:29.368Z,98822.81
2022-10-11T04:58:10.084Z,98825.50
2022-10-11T05:00:51.637Z,98822.09
2022-10-11T05:03:33.035Z,98827.28
2022-10-11T05:06:14.652Z,98829.78
2022-10-11T05:08:55.936Z,98833.97
2022-10-11T05:11:37.145Z,98840.09
2022-10-11T05:14:18.654Z,98845.44
2022-10-11T05:17:06.972Z,98831.44
2022-10-11T05:19:47.978Z,98843.69
2022-10-11T05:22:29.263Z,98843.84
2022-10-11T05:25:11.079Z,98843.03
2022-10-11T05:27:52.102Z,98848.38
2022-10-11T05:30:33.567Z,98849.16
2022-10-11T05:33:15.102Z,98858.75
2022-10-11T05:35:56.593Z,98853.56
2022-10-11T05:38:37.960Z,98857.88
2022-10-11T05:41:19.530Z,98865.66
2022-10-11T05:44:00.454Z,98864.78
2022-10-11T05:46:54.417Z,98865.66
2022-10-11T05:49:35.165Z,98872.50
2022-10-11T05:52:19.782Z,98871.69
2022-10-11T05:55:01.124Z,98872.69
2022-10-11T05:57:42.591Z,98882.13
2022-10-11T06:00:25.076Z,98881.22
2022-10-11T06:03:06.374Z,98881.38
2022-10-11T06:05:46.769Z,98884.88
2022-10-11T06:08:33.628Z,98902.88
2022-10-11T06:12:24.836Z,98894.38
2022-10-11T06:15:32.182Z,98901.38
2022-10-11T06:18:33.524Z,98906.50
2022-10-11T06:21:33.429Z,98908.25
2022-10-11T06:24:28.257Z,98908.25
2022-10-11T06:27:22.442Z,98907.34
2022-10-11T06:30:22.705Z,98914.38
2022-10-11T06:33:20.939Z,98922.31
2022-10-11T06:36:17.013Z,98918.97
2022-10-11T06:39:15.154Z,98923.25
2022-10-11T06:42:21.173Z,98930.28
2022-10-11T06:45:01.183Z,98925.25
2022-10-11T06:48:01.890Z,98929.44
2022-10-11T06:51:05.906Z,98938.81
2022-10-11T06:54:01.887Z,98936.38
2022-10-11T06:56:59.867Z,98937.22
2022-10-11T07:00:12.600Z,98934.63
2022-10-11T07:03:12.909Z,98940.69
2022-10-11T07:06:12.352Z,98946.69
2022-10-11T07:09:25.089Z,98950.03
2022-10-11T07:12:20.832Z,98958.66
2022-10-11T07:15:00.881Z,98958.06
2022-10-11T07:18:13.911Z,98962.19
2022-10-11T07:21:13.215Z,98965.69
2022-10-11T07:24:20.249Z,98970.13
2022-10-11T07:27:23.374Z,98980.34
2022-10-11T07:30:34.018Z,98978.69
2022-10-11T07:33:29.109Z,98977.59
2022-10-11T07:36:38.555Z,98978.50
2022-10-11T07:39:18.523Z,98976.09
2022-10-11T07:42:19.184Z,98981.28
2022-10-11T07:45:17.784Z,98980.28
2022-10-11T07:48:15.769Z,98979.41
2022-10-11T07:51:16.589Z,98983.88
2022-10-11T07:54:28.965Z,98982.88
2022-10-11T07:57:39.238Z,98980.34
2022-10-11T08:00:19.969Z,98988.91
2022-10-11T08:03:17.091Z,98989.72
2022-10-11T08:06:18.038Z,98983.44
2022-10-11T08:09:12.842Z,98985.88
2022-10-11T08:12:08.295Z,98996.44
2022-10-11T08:15:02.483Z,98991.81
2022-10-11T08:18:08.389Z,98990.16
2022-10-11T08:21:09.404Z,98990.06
2022-10-11T08:24:08.756Z,98990.16
2022-10-11T08:27:02.170Z,98996.06
2022-10-11T08:29:57.393Z,98989.06
2022-10-11T08:32:51.417Z,98999.53
2022-10-11T08:35:30.551Z,99004.53
2022-10-11T08:38:26.266Z,98997.78
2022-10-11T08:41:31.894Z,98999.34
2022-10-11T08:45:08.898Z,99003.69
2022-10-11T08:48:17.366Z,99000.13
2022-10-11T08:51:30.681Z,99005.22
2022-10-11T08:54:39.717Z,98996.44
2022-10-11T08:57:53.162Z,99002.28
2022-10-11T09:00:54.158Z,98996.16
2022-10-11T09:03:40.874Z,98993.66
2022-10-11T09:06:38.512Z,98991.75
2022-10-11T09:09:27.120Z,99000.25
2022-10-11T09:12:12.650Z,99004.63
2022-10-11T09:15:02.722Z,98998.34
2022-10-11T09:17:49.984Z,99006.22
2022-10-11T09:20:53.127Z,98999.28
2022-10-11T09:23:42.795Z,98994.06
2022-10-11T09:26:16.346Z,98997.50
2022-10-11T09:29:01.404Z,99000.94
2022-10-11T09:31:31.114Z,99000.94
2022-10-11T09:34:03.981Z,99006.63
2022-10-11T09:36:41.653Z,99001.34
2022-10-11T09:39:31.848Z,99007.47
2022-10-11T09:42:02.913Z,99002.94
2022-10-11T09:44:36.735Z,99001.34
2022-10-11T09:47:06.054Z,99004.88
2022-10-11T09:49:38.822Z,98999.50
2022-10-11T09:52:15.900Z,99008.19
2022-10-11T09:54:48.179Z,99008.81
2022-10-11T09:57:24.215Z,99007.88
2022-10-11T10:00:06.998Z,99005.28
2022-10-11T10:02:44.896Z,99009.63
2022-10-11T10:05:20.985Z,99006.09
2022-10-11T10:08:05.071Z,99012.13
2022-10-11T10:10:39.742Z,99006.88
2022-10-11T10:13:22.144Z,99011.97
2022-10-11T10:15:53.526Z,99009.31
2022-10-11T10:18:34.016Z,99008.28
2022-10-11T10:21:03.343Z,99007.19
2022-10-11T10:23:34.715Z,99016.63
2022-10-11T10:26:20.571Z,99008.59
2022-10-11T10:29:03.423Z,99012.88
2022-10-11T10:32:01.571Z,98998.69
2022-10-11T10:34:30.009Z,99006.47
2022-10-11T10:37:03.720Z,99002.06
2022-10-11T10:39:38.702Z,99013.13
2022-10-11T10:42:16.847Z,99006.00
2022-10-11T10:44:46.219Z,99003.22
2022-10-11T10:47:25.162Z,99001.38
2022-10-11T10:50:01.001Z,99003.03
2022-10-11T10:52:49.148Z,99005.63
2022-10-11T10:55:26.442Z,99009.56
2022-10-11T10:58:23.282Z,99006.97
2022-10-11T11:00:57.382Z,99002.34
2022-10-11T11:03:33.095Z,99001.25
2022-10-11T11:06:06.096Z,99009.03
2022-10-11T11:08:52.962Z,99002.72
2022-10-11T11:11:35.938Z,98999.94
2022-10-11T11:14:22.725Z,98998.25
2022-10-11T11:17:02.407Z,98992.13
2022-10-11T11:19:45.607Z,98996.22
2022-10-11T11:22:29.158Z,98999.75
2022-10-11T11:25:13.645Z,98985.66
2022-10-11T11:27:53.769Z,98989.00
2022-10-11T11:30:25.182Z,98986.13
2022-10-11T11:33:11.454Z,98980.66
2022-10-11T11:35:44.063Z,98982.88
2022-10-11T11:38:18.121Z,98977.97
2022-10-11T11:40:51.907Z,98977.88
2022-10-11T11:43:28.175Z,98983.06
2022-10-11T11:46:04.422Z,98980.38
2022-10-11T11:48:32.937Z,98980.72
2022-10-11T11:51:06.646Z,98980.56
2022-10-11T11:53:56.757Z,98981.31
2022-10-11T11:56:35.456Z,98976.56
2022-10-11T11:59:13.109Z,98976.75
2022-10-11T12:01:51.244Z,98982.16
2022-10-11T12:04:29.953Z,98980.47
2022-10-11T12:07:21.883Z,98981.31
2022-10-11T12:09:54.964Z,98975.19
2022-10-11T12:12:31.011Z,98973.34
2022-10-11T12:15:27.267Z,98975.94
2022-10-11T12:18:14.143Z,98978.25
2022-10-11T12:20:44.589Z,98976.38
2022-10-11T12:23:42.799Z,98969.69
2022-10-11T12:26:38.134Z,98973.88
2022-10-11T12:29:45.808Z,98962.81
2022-10-11T12:32:51.448Z,98969.69
2022-10-11T12:36:07.394Z,98968.84
2022-10-11T12:38:41.857Z,98965.72
2022-10-11T12:41:50.066Z,98978.06
2022-10-11T12:44:26.176Z,98971.91
2022-10-11T12:47:26.455Z,98972.84
2022-10-11T12:50:13.642Z,98970.31
2022-10-11T12:52:59.190Z,98967.84
2022-10-11T12:55:43.577Z,98963.56
2022-10-11T12:58:40.797Z,98960.03
2022-10-11T13:01:23.146Z,98960.03
2022-10-11T13:04:06.340Z,98957.97
2022-10-11T13:06:38.175Z,98960.03
2022-10-11T13:09:19.765Z,98963.66
2022-10-11T13:11:52.193Z,98952.13
2022-10-11T13:14:23.155Z,98952.59
2022-10-11T13:17:09.496Z,98947.78
2022-10-11T13:22:20.517Z,98945.34
2022-10-11T13:24:50.477Z,98947.84
2022-10-11T13:27:23.440Z,98943.19
2022-10-11T13:29:54.567Z,98939.41
2022-10-11T13:32:26.150Z,98946.44
2022-10-11T13:34:57.593Z,98943.13
2022-10-11T13:37:29.097Z,98943.84
2022-10-11T13:39:59.668Z,98948.75
2022-10-11T13:42:32.392Z,98945.03
2022-10-11T13:45:02.245Z,98945.69
2022-10-11T13:47:32.998Z,98945.31
2022-10-11T13:50:19.714Z,98939.81
2022-10-11T13:52:59.995Z,98939.00
2022-10-11T13:55:34.617Z,98936.81
2022-10-11T13:58:14.966Z,98925.22
2022-10-11T14:00:55.158Z,98929.03
2022-10-11T14:03:24.645Z,98935.53
2022-10-11T14:05:58.784Z,98928.88
2022-10-11T14:08:35.959Z,98927.38
2022-10-11T14:11:07.100Z,98931.75
2022-10-11T14:13:39.413Z,98928.94
2022-10-11T14:16:10.920Z,98932.38
2022-10-11T14:18:48.319Z,98935.19
2022-10-11T14:21:28.941Z,98940.09
2022-10-11T14:23:59.892Z,98933.59
2022-10-11T14:26:41.691Z,98926.91
2022-10-11T14:29:19.177Z,98931.50
2022-10-11T14:31:47.787Z,98927.44
2022-10-11T14:34:20.454Z,98939.75
2022-10-11T14:36:50.321Z,98936.69
2022-10-11T14:39:21.249Z,98938.88
2022-10-11T14:41:52.191Z,98937.09
2022-10-11T14:44:22.625Z,98933.13
2022-10-11T14:46:54.587Z,98932.19
2022-10-11T14:49:26.238Z,98936.06
2022-10-11T14:51:56.709Z,98928.22
2022-10-11T14:54:28.079Z,98931.03
2022-10-11T14:57:00.804Z,98933.66
2022-10-11T14:59:34.562Z,98930.41
2022-10-11T15:02:04.948Z,98924.56
2022-10-11T15:04:33.829Z,98932.28
2022-10-11T15:07:02.367Z,98926.22
2022-10-11T15:09:31.559Z,98923.91
2022-10-11T15:12:01.576Z,98926.44
2022-10-11T15:14:30.091Z,98924.66
2022-10-11T15:16:58.475Z,98925.56
2022-10-11T15:19:27.102Z,98924.09
2022-10-11T15:21:55.513Z,98917.16
2022-10-11T15:24:23.966Z,98920.97
2022-10-11T15:26:52.273Z,98922.75
2022-10-11T15:29:24.199Z,98926.00
2022-10-11T15:31:52.548Z,98915.06
2022-10-11T15:34:21.283Z,98926.38
2022-10-11T15:36:50.102Z,98915.25
2022-10-11T15:39:27.380Z,98919.50
2022-10-11T15:41:56.157Z,98918.56
2022-10-11T15:44:26.109Z,98921.28
2022-10-11T15:46:54.698Z,98908.91
2022-10-11T15:49:22.975Z,98914.75
2022-10-11T15:51:51.349Z,98913.09
2022-10-11T15:54:19.714Z,98919.25
2022-10-11T15:56:48.064Z,98918.63
2022-10-11T15:59:16.401Z,98915.66
2022-10-11T16:01:46.935Z,98909.09
2022-10-11T16:04:15.392Z,98920.75
2022-10-11T16:06:43.683Z,98914.06
2022-10-11T16:09:12.150Z,98916.94
2022-10-11T16:11:40.657Z,98907.78
2022-10-11T16:14:08.991Z,98915.91
2022-10-11T16:16:38.016Z,98914.63
2022-10-11T16:19:08.187Z,98910.44
2022-10-11T16:21:36.534Z,98916.69
2022-10-11T16:24:05.557Z,98914.28
2022-10-11T16:26:33.998Z,98920.59
2022-10-11T16:29:02.417Z,98922.59
2022-10-11T16:31:30.856Z,98920.13
2022-10-11T16:33:59.478Z,98923.66
2022-10-11T16:36:40.724Z,98919.47
2022-10-11T16:39:13.502Z,98921.34
2022-10-11T16:41:42.589Z,98919.75
2022-10-11T16:44:14.346Z,98919.84
2022-10-11T16:46:43.045Z,98927.03
2022-10-11T16:49:11.524Z,98922.09
2022-10-11T16:51:41.352Z,98922.31
2022-10-11T16:54:09.840Z,98927.69
2022-10-11T16:56:40.080Z,98922.78
2022-10-11T16:59:09.332Z,98930.66
2022-10-11T17:01:38.873Z,98930.75
2022-10-11T17:04:07.559Z,98938.94
2022-10-11T17:06:36.011Z,98923.63
2022-10-11T17:09:06.070Z,98929.81
2022-10-11T17:11:34.669Z,98932.72
2022-10-11T17:14:05.103Z,98932.00
2022-10-11T17:16:34.174Z,98929.56
2022-10-11T17:19:02.680Z,98929.75
2022-10-11T17:21:31.304Z,98931.63
2022-10-11T17:23:59.681Z,98924.06
2022-10-11T17:26:29.391Z,98928.63
2022-10-11T17:29:00.368Z,98929.56
2022-10-11T17:31:30.334Z,98923.69
2022-10-11T17:34:00.564Z,98921.38
2022-10-11T17:36:31.977Z,98920.53
2022-10-11T17:39:06.827Z,98922.50
2022-10-11T17:41:36.653Z,98920.06
2022-10-11T17:44:05.758Z,98919.34
2022-10-11T17:46:34.331Z,98922.84
2022-10-11T17:49:05.124Z,98915.97
2022-10-11T17:51:34.507Z,98916.38
2022-10-11T17:54:04.590Z,98928.78
2022-10-11T17:56:37.668Z,98923.00
2022-10-11T17:59:09.003Z,98931.81
2022-10-11T18:01:37.443Z,98938.00
2022-10-11T18:04:07.135Z,98943.22
2022-10-11T18:06:40.560Z,98941.72
2022-10-11T18:09:09.291Z,98943.56
2022-10-11T18:11:37.798Z,98946.50
2022-10-11T18:14:07.840Z,98947.25
2022-10-11T18:16:38.620Z,98938.69
2022-10-11T18:19:10.005Z,98946.59
2022-10-11T18:21:38.762Z,98947.44
2022-10-11T18:24:10.839Z,98948.34
2022-10-11T18:26:39.815Z,98932.88
2022-10-11T18:29:09.854Z,98935.63
2022-10-11T18:31:38.212Z,98935.53
2022-10-11T18:34:10.734Z,98926.09
2022-10-11T18:36:39.885Z,98929.78
2022-10-11T18:39:12.332Z,98934.03
2022-10-11T18:41:42.146Z,98935.81
2022-10-11T18:44:14.921Z,98924.59
2022-10-11T18:46:44.227Z,98932.38
2022-10-11T18:49:13.390Z,98935.72
2022-10-11T18:51:43.206Z,98938.31
2022-10-11T18:54:16.745Z,98922.81
2022-10-11T18:56:48.742Z,98928.00
2022-10-11T18:59:20.342Z,98932.53
2022-10-11T19:01:51.960Z,98933.53
2022-10-11T19:04:21.260Z,98925.84
2022-10-11T19:06:52.682Z,98936.25
2022-10-11T19:09:24.414Z,98933.75
2022-10-11T19:11:54.787Z,98929.38
2022-10-11T19:14:28.320Z,98920.84
2022-10-11T19:16:57.684Z,98925.09
2022-10-11T19:19:29.058Z,98924.34
2022-10-11T19:21:57.837Z,98920.00
2022-10-11T19:24:28.826Z,98923.25
2022-10-11T19:27:02.371Z,98920.16
2022-10-11T19:29:34.541Z,98924.53
2022-10-11T19:32:04.038Z,98928.06
2022-10-11T19:34:32.696Z,98926.56
2022-10-11T19:37:03.260Z,98928.38
2022-10-11T19:39:32.621Z,98931.09
2022-10-11T19:42:01.611Z,98928.75
2022-10-11T19:44:30.165Z,98933.19
2022-10-11T19:47:04.935Z,98938.38
2022-10-11T19:49:33.809Z,98925.50
2022-10-11T19:52:02.282Z,98933.28
2022-10-11T19:54:31.853Z,98932.44
2022-10-11T19:57:00.370Z,98936.72
2022-10-11T19:59:28.605Z,98930.69
2022-10-11T20:01:57.071Z,98931.53
2022-10-11T20:04:51.517Z,98933.34
2022-10-11T20:07:15.397Z,98929.09
2022-10-11T20:09:43.941Z,98929.09
2022-10-11T20:12:12.748Z,98930.94
2022-10-11T20:14:41.582Z,98936.13
2022-10-11T20:17:10.246Z,98932.63
2022-10-11T20:19:39.909Z,98936.88
2022-10-11T20:22:08.412Z,98948.19
2022-10-11T20:24:36.817Z,98944.81
2022-10-11T20:27:06.461Z,98950.84
2022-10-11T20:29:35.010Z,98952.81
2022-10-11T20:32:03.303Z,98946.69
2022-10-11T20:34:31.702Z,98948.25
2022-10-11T20:37:01.556Z,98950.03
2022-10-11T20:39:30.621Z,98946.53
2022-10-11T20:41:59.392Z,98949.19
2022-10-11T20:44:28.839Z,98941.41
2022-10-11T20:47:00.363Z,98942.16
2022-10-11T20:49:31.928Z,98940.47
2022-10-11T20:52:03.061Z,98943.16
2022-10-11T20:54:34.238Z,98943.16
2022-10-11T20:57:03.967Z,98943.16
2022-10-11T20:59:32.709Z,98939.84
2022-10-11T21:02:01.861Z,98936.47
2022-10-11T21:04:31.037Z,98944.34
2022-10-11T21:07:00.907Z,98942.75
2022-10-11T21:09:29.328Z,98945.34
2022-10-11T21:11:57.611Z,98951.47
2022-10-11T21:14:26.560Z,98953.31
2022-10-11T21:16:54.882Z,98947.38
2022-10-11T21:19:23.944Z,98946.53
2022-10-11T21:21:53.848Z,98938.81
2022-10-11T21:24:24.491Z,98947.53
2022-10-11T21:26:56.950Z,98939.81
2022-10-11T21:29:28.086Z,98943.34
2022-10-11T21:31:56.355Z,98937.31
2022-10-11T21:34:25.004Z,98938.41
2022-10-11T21:36:53.380Z,98937.66
2022-10-11T21:39:23.193Z,98945.44
2022-10-11T21:41:51.489Z,98940.31
2022-10-11T21:44:20.032Z,98934.31
2022-10-11T21:47:06.125Z,98940.31
2022-10-11T21:49:36.061Z,98934.31
2022-10-11T21:52:04.960Z,98930.94
2022-10-11T21:54:34.866Z,98924.84
2022-10-11T21:57:03.516Z,98935.22
2022-10-11T21:59:32.158Z,98930.94
2022-10-11T22:02:02.021Z,98933.63
2022-10-11T22:04:30.554Z,98929.28
2022-10-11T22:06:59.572Z,98927.59
2022-10-11T22:09:29.830Z,98920.91
2022-10-11T22:11:59.578Z,98926.94
2022-10-11T22:14:30.349Z,98917.56
2022-10-11T22:16:58.732Z,98925.44
2022-10-11T22:19:27.353Z,98923.66
2022-10-11T22:21:55.832Z,98922.06
2022-10-11T22:24:24.059Z,98923.09
2022-10-11T22:26:52.509Z,98916.22
2022-10-11T22:29:22.197Z,98914.53
2022-10-11T22:31:50.429Z,98918.81
2022-10-11T22:34:18.835Z,98919.00
2022-10-11T22:36:47.629Z,98916.41
2022-10-11T22:39:15.906Z,98909.50
2022-10-11T22:41:44.669Z,98908.69
2022-10-11T22:44:13.210Z,98905.25
2022-10-11T22:46:43.235Z,98913.03
2022-10-11T22:49:11.464Z,98916.56
2022-10-11T22:51:39.672Z,98916.66
2022-10-11T22:54:08.161Z,98917.66
2022-10-11T22:56:36.466Z,98910.78
2022-10-11T22:59:04.751Z,98912.53
2022-10-11T23:01:33.242Z,98915.31
2022-10-11T23:04:02.888Z,98915.38
2022-10-11T23:06:31.955Z,98911.00
2022-10-11T23:09:00.248Z,98906.84
2022-10-11T23:11:28.542Z,98900.72
2022-10-11T23:13:56.919Z,98903.41
2022-10-11T23:16:25.532Z,98892.19
2022-10-11T23:18:54.239Z,98892.94
2022-10-11T23:21:23.916Z,98889.53
2022-10-11T23:23:54.146Z,98896.47
2022-10-11T23:26:22.674Z,98903.47
2022-10-11T23:28:56.072Z,98905.09
2022-10-11T23:31:24.575Z,98903.59
2022-10-11T23:33:54.780Z,98906.44
2022-10-11T23:36:26.586Z,98900.44
2022-10-11T23:38:57.262Z,98898.78
2022-10-11T23:41:27.673Z,98895.34
2022-10-11T23:43:56.156Z,98895.41
2022-10-11T23:46:24.487Z,98895.59
2022-10-11T23:48:52.850Z,98896.50
2022-10-11T23:51:21.116Z,98902.50
2022-10-11T23:53:50.779Z,98892.31
2022-10-11T23:56:19.012Z,98901.09
2022-10-11T23:58:47.421Z,98897.72
